Flood From: 24-02-2018 06:00 Until: 25-02-2018 06:00 warning for: Flood Level: Yellow info button

Although rather usual in this region, locally or potentially dangerous phenomena are expected. (such as local winds, summer thunderstorms, rising streams or high waves) Be aware and pay attention to the latest weather updates, especially if you carry out activities exposed to weather or close to a stream or shoreline. 


Meteo18 Weather Cam more information Meteo18 Weather Cam


Thunder radar more information blitzortung!


Rain radar more information rain snow radar


Visit our other weather sites:

Template documentation
and downloads

And another site



Weather Underground History page Text

Daily Summary for November 1, 2017 Units:  English    Metric   Both
« Previous Day
Next Day »
Daily Weekly Monthly Yearly Custom
  High: Low: Average:
Temperature: TemperatureC °F 2.9 °F 9 °F
Dew Point: DewpointC °F 1.6 °F 4.8 °F
Humidity: Humidity % 56 % 76 %
Wind Speed: WindSpeedKMH mph 0.0 mph 1.5 mph
Wind Gust: WindSpeedGustKMH mph - -
Wind:- - SSE
Pressure: PressurehPa in 1019.5 in -
Precipitation: 0.0 in    
Historical Graphs
 
 
Tabular Data for November 1, 2017
Time Temperature Dew Point Pressure Wind Wind Speed Wind Gust Humidity Rainfall Rate (Hourly)
TemperatureC °F DewpointC °F PressurehPa in Calm     Humidity % HourlyPrecipMM in
00:02 4.3 °F 2.5 °F 1025.6 in Calm   1.6 mph 88 % 0.0 in
00:12 3.9 °F 2.3 °F 1025.3 in WNW 1.6 mph 1.6 mph 89 % 0.0 in
00:17 3.9 °F 2.4 °F 1025.6 in Calm   1.6 mph 90 % 0.0 in
00:22 3.9 °F 2.4 °F 1025.6 in Calm   1.6 mph 90 % 0.0 in
00:32 3.8 °F 2.3 °F 1025.3 in Calm   1.6 mph 90 % 0.0 in
00:42 3.7 °F 2.2 °F 1025.3 in Calm   1.6 mph 90 % 0.0 in
00:52 3.4 °F 1.9 °F 1025.3 in Calm   1.6 mph 90 % 0.0 in
00:57 3.4 °F 2.1 °F 1025.3 in Calm   1.6 mph 91 % 0.0 in
01:02 3.3 °F 2.0 °F 1025.3 in WNW 1.6 mph 1.6 mph 91 % 0.0 in
01:12 3.4 °F 2.1 °F 1025.3 in North 1.6 mph 1.6 mph 91 % 0.0 in
01:17 3.2 °F 1.9 °F 1025.3 in Calm   3.2 mph 91 % 0.0 in
01:22 3.2 °F 1.9 °F 1025.3 in North 1.6 mph 3.2 mph 91 % 0.0 in
01:27 3.0 °F 1.7 °F 1025.3 in NNE 1.6 mph 3.2 mph 91 % 0.0 in
01:32 2.9 °F 1.6 °F 1024.9 in North 1.6 mph 3.2 mph 91 % 0.0 in
01:37 3.1 °F 1.9 °F 1024.9 in Calm   3.2 mph 92 % 0.0 in
01:42 3.2 °F 2.0 °F 1024.9 in Calm   3.2 mph 92 % 0.0 in
01:47 3.3 °F 2.1 °F 1024.9 in Calm   1.6 mph 92 % 0.0 in
01:52 3.4 °F 2.2 °F 1024.9 in Calm   1.6 mph 92 % 0.0 in
01:57 3.4 °F 2.1 °F 1024.9 in Calm   1.6 mph 91 % 0.0 in
02:02 3.4 °F 2.1 °F 1024.9 in Calm   1.6 mph 91 % 0.0 in
02:07 3.4 °F 2.1 °F 1024.9 in Calm   1.6 mph 91 % 0.0 in
02:17 3.2 °F 1.9 °F 1024.9 in WNW 1.6 mph 1.6 mph 91 % 0.0 in
02:27 3.1 °F 1.8 °F 1024.9 in WNW 1.6 mph 1.6 mph 91 % 0.0 in
02:32 3.2 °F 2.0 °F 1024.9 in WNW 1.6 mph 3.2 mph 92 % 0.0 in
02:37 3.3 °F 2.1 °F 1024.9 in Calm   3.2 mph 92 % 0.0 in
02:42 3.5 °F 2.3 °F 1024.9 in Calm   3.2 mph 92 % 0.0 in
02:47 3.3 °F 2.0 °F 1024.9 in Calm   3.2 mph 91 % 0.0 in
02:52 3.4 °F 2.2 °F 1024.9 in Calm   1.6 mph 92 % 0.0 in
02:57 3.5 °F 2.3 °F 1024.9 in Calm   1.6 mph 92 % 0.0 in
03:02 3.7 °F 2.5 °F 1024.9 in Calm   1.6 mph 92 % 0.0 in
03:12 3.9 °F 2.6 °F 1024.9 in NNE 3.2 mph 3.2 mph 91 % 0.0 in
03:17 4.0 °F 2.5 °F 1024.9 in NNE 1.6 mph 4.8 mph 90 % 0.0 in
03:22 3.8 °F 2.2 °F 1024.6 in North 1.6 mph 4.8 mph 89 % 0.0 in
03:27 3.5 °F 2.0 °F 1024.6 in North 1.6 mph 4.8 mph 90 % 0.0 in
03:32 3.5 °F 2.2 °F 1024.6 in Calm   3.2 mph 91 % 0.0 in
03:37 3.7 °F 2.4 °F 1024.6 in Calm   3.2 mph 91 % 0.0 in
03:42 3.8 °F 2.5 °F 1024.6 in NNW 1.6 mph 1.6 mph 91 % 0.0 in
03:47 3.9 °F 2.4 °F 1024.6 in Calm   1.6 mph 90 % 0.0 in
03:52 3.9 °F 2.4 °F 1024.6 in NNW 1.6 mph 1.6 mph 90 % 0.0 in
03:57 4.0 °F 2.5 °F 1024.6 in NNW 1.6 mph 1.6 mph 90 % 0.0 in
04:02 3.4 °F 1.9 °F 1024.6 in Calm   1.6 mph 90 % 0.0 in
08:12 4.4 °F 2.3 °F 1024.3 in Calm   1.6 mph 86 % 0 in
08:17 4.7 °F 2.4 °F 1023.9 in Calm   3.2 mph 85 % 0.0 in
08:22 4.8 °F 2.5 °F 1024.3 in Calm   3.2 mph 85 % 0.0 in
08:27 5.0 °F 2.5 °F 1024.3 in Calm   1.6 mph 84 % 0.0 in
08:32 5.2 °F 2.5 °F 1024.3 in Calm   1.6 mph 83 % 0.0 in
08:37 5.4 °F 2.7 °F 1024.3 in Calm   1.6 mph 83 % 0.0 in
08:42 5.6 °F 2.8 °F 1024.3 in Calm   1.6 mph 82 % 0.0 in
08:47 5.7 °F 2.9 °F 1024.3 in Calm   1.6 mph 82 % 0.0 in
08:52 5.8 °F 2.8 °F 1024.3 in SE 1.6 mph 3.2 mph 81 % 0.0 in
08:57 6.0 °F 2.8 °F 1024.3 in SE 1.6 mph 4.8 mph 80 % 0.0 in
09:02 6.1 °F 3.1 °F 1024.3 in Calm   4.8 mph 81 % 0.0 in
09:12 6.3 °F 3.1 °F 1024.3 in Calm   4.8 mph 80 % 0.0 in
09:17 6.4 °F 3.2 °F 1024.3 in SE 3.2 mph 4.8 mph 80 % 0.0 in
09:22 6.4 °F 3.0 °F 1024.3 in SSE 1.6 mph 4.8 mph 79 % 0.0 in
09:27 6.4 °F 2.8 °F 1024.3 in Calm   8.0 mph 78 % 0.0 in
09:32 6.5 °F 2.9 °F 1024.3 in ESE 1.6 mph 8.0 mph 78 % 0.0 in
09:37 6.8 °F 3.4 °F 1024.3 in Calm   8.0 mph 79 % 0.0 in
09:42 6.9 °F 3.5 °F 1024.3 in South 1.6 mph 6.4 mph 79 % 0.0 in
09:47 7.1 °F 3.3 °F 1024.3 in East 1.6 mph 6.4 mph 77 % 0.0 in
09:57 7.1 °F 3.5 °F 1024.3 in South 1.6 mph 6.4 mph 78 % 0.0 in
10:02 7.3 °F 3.7 °F 1024.3 in SE 1.6 mph 6.4 mph 78 % 0.0 in
10:12 7.7 °F 3.9 °F 1023.9 in SSW 3.2 mph 6.4 mph 77 % 0.0 in
10:17 7.7 °F 4.1 °F 1024.3 in SE 1.6 mph 6.4 mph 78 % 0.0 in
10:22 7.8 °F 4.2 °F 1023.9 in ESE 3.2 mph 8.0 mph 78 % 0.0 in
10:27 7.8 °F 4.0 °F 1023.9 in SSW 4.8 mph 8.0 mph 77 % 0.0 in
10:32 8.0 °F 4.2 °F 1023.9 in ESE 1.6 mph 8.0 mph 77 % 0.0 in
10:42 8.6 °F 4.2 °F 1023.9 in ESE 3.2 mph 8.0 mph 74 % 0.0 in
10:47 8.7 °F 4.5 °F 1023.9 in SSW 3.2 mph 8.0 mph 75 % 0.0 in
10:52 8.9 °F 4.5 °F 1023.9 in Calm   8.0 mph 74 % 0.0 in
10:57 9.2 °F 4.4 °F 1023.9 in ESE 1.6 mph 9.7 mph 72 % 0.0 in
11:02 9.3 °F 4.7 °F 1023.9 in ESE 1.6 mph 9.7 mph 73 % 0.0 in
11:12 9.8 °F 4.8 °F 1023.6 in East 1.6 mph 14.5 mph 71 % 0.0 in
11:17 10.1 °F 5.1 °F 1023.9 in East 1.6 mph 14.5 mph 71 % 0.0 in
11:22 10.2 °F 5.2 °F 1023.6 in ESE 1.6 mph 14.5 mph 71 % 0.0 in
11:27 10.5 °F 5.5 °F 1023.6 in SE 1.6 mph 9.7 mph 71 % 0.0 in
11:32 10.8 °F 5.3 °F 1023.6 in East 9.7 mph 9.7 mph 69 % 0.0 in
11:37 11.0 °F 5.5 °F 1023.6 in SE 3.2 mph 11.3 mph 69 % 0.0 in
11:42 11.2 °F 5.3 °F 1023.2 in SE 3.2 mph 12.9 mph 67 % 0.0 in
11:47 11.2 °F 5.1 °F 1023.2 in ESE 6.4 mph 12.9 mph 66 % 0.0 in
11:52 11.2 °F 5.1 °F 1023.2 in ESE 6.4 mph 12.9 mph 66 % 0.0 in
12:02 11.8 °F 5.4 °F 1023.2 in ESE 9.7 mph 11.3 mph 65 % 0.0 in
12:12 12.1 °F 5.7 °F 1022.9 in ENE 6.4 mph 14.5 mph 65 % 0.0 in
12:17 12.4 °F 5.8 °F 1022.9 in Calm   14.5 mph 64 % 0.0 in
12:27 12.7 °F 5.6 °F 1022.6 in South 3.2 mph 12.9 mph 62 % 0.0 in
12:32 12.8 °F 5.7 °F 1022.2 in ESE 4.8 mph 12.9 mph 62 % 0.0 in
12:42 13.1 °F 5.7 °F 1022.2 in SE 4.8 mph 12.9 mph 61 % 0.0 in
12:47 13.2 °F 6.1 °F 1022.2 in SE 4.8 mph 12.9 mph 62 % 0.0 in
12:52 13.2 °F 5.8 °F 1021.9 in Calm   12.9 mph 61 % 0.0 in
12:57 13.3 °F 5.7 °F 1021.9 in East 6.4 mph 9.7 mph 60 % 0.0 in
13:02 13.6 °F 6.0 °F 1021.9 in East 3.2 mph 9.7 mph 60 % 0.0 in
13:12 13.5 °F 6.4 °F 1021.9 in ESE 12.9 mph 12.9 mph 62 % 0.0 in
13:17 13.4 °F 5.5 °F 1021.9 in ESE 6.4 mph 14.5 mph 59 % 0.0 in
13:22 13.4 °F 5.8 °F 1021.6 in SSE 4.8 mph 14.5 mph 60 % 0.0 in
13:27 13.6 °F 6.2 °F 1021.6 in SE 3.2 mph 14.5 mph 61 % 0.0 in
13:32 13.8 °F 6.2 °F 1021.6 in East 3.2 mph 12.9 mph 60 % 0.0 in
13:37 13.9 °F 6.0 °F 1021.6 in ESE 3.2 mph 11.3 mph 59 % 0.0 in
13:42 14.0 °F 6.4 °F 1021.6 in SSE 3.2 mph 11.3 mph 60 % 0.0 in
13:47 14.0 °F 5.9 °F 1021.2 in SE 6.4 mph 11.3 mph 58 % 0.0 in
13:52 14.3 °F 6.4 °F 1021.2 in SSE 4.8 mph 12.9 mph 59 % 0.0 in
13:57 14.5 °F 6.6 °F 1021.2 in Calm   12.9 mph 59 % 0.0 in
14:02 14.7 °F 6.5 °F 1021.2 in ESE 3.2 mph 12.9 mph 58 % 0.0 in
14:12 14.5 °F 6.3 °F 1020.9 in SSE 3.2 mph 11.3 mph 58 % 0.0 in
14:17 14.5 °F 6.3 °F 1020.9 in SSE 3.2 mph 11.3 mph 58 % 0.0 in
14:22 14.6 °F 6.2 °F 1020.5 in SE 3.2 mph 16.1 mph 57 % 0.0 in
14:27 14.8 °F 6.9 °F 1020.9 in ESE 8.0 mph 16.1 mph 59 % 0.0 in
14:32 14.9 °F 6.5 °F 1020.5 in SW 9.7 mph 16.1 mph 57 % 0.0 in
14:37 15.1 °F 6.4 °F 1020.5 in SSE 6.4 mph 12.9 mph 56 % 0.0 in
14:42 14.9 °F 6.5 °F 1020.5 in Calm   12.9 mph 57 % 0.0 in
14:47 14.9 °F 6.5 °F 1020.5 in ESE 1.6 mph 12.9 mph 57 % 0.0 in
14:52 14.8 °F 6.1 °F 1020.5 in SSE 1.6 mph 11.3 mph 56 % 0.0 in
14:57 14.8 °F 6.4 °F 1020.5 in SSW 4.8 mph 9.7 mph 57 % 0.0 in
15:02 14.8 °F 6.4 °F 1020.5 in WNW 1.6 mph 9.7 mph 57 % 0.0 in
15:12 14.8 °F 6.6 °F 1020.5 in Calm   9.7 mph 58 % 0.0 in
15:17 14.9 °F 6.5 °F 1020.5 in Calm   8.0 mph 57 % 0.0 in
15:22 15.0 °F 6.5 °F 1020.2 in SSE 1.6 mph 8.0 mph 57 % 0.0 in
15:27 14.9 °F 6.2 °F 1020.2 in South 1.6 mph 6.4 mph 56 % 0.0 in
15:32 14.9 °F 6.5 °F 1020.2 in ESE 1.6 mph 8.0 mph 57 % 0.0 in
15:37 14.8 °F 6.6 °F 1020.2 in SSW 4.8 mph 8.0 mph 58 % 0.0 in
15:42 14.7 °F 6.5 °F 1019.9 in SSE 1.6 mph 8.0 mph 58 % 0.0 in
15:47 14.6 °F 6.4 °F 1020.2 in South 1.6 mph 8.0 mph 58 % 0.0 in
15:52 14.6 °F 6.7 °F 1020.2 in Calm   8.0 mph 59 % 0.0 in
15:57 14.5 °F 6.6 °F 1020.2 in SSW 3.2 mph 6.4 mph 59 % 0.0 in
16:02 14.4 °F 6.5 °F 1020.2 in SSW 8.0 mph 8.0 mph 59 % 0.0 in
16:12 14.3 °F 6.6 °F 1020.2 in Calm   8.0 mph 60 % 0.0 in
16:17 14.2 °F 6.5 °F 1020.2 in SSW 3.2 mph 8.0 mph 60 % 0.0 in
16:22 14.0 °F 6.4 °F 1020.2 in SSW 1.6 mph 6.4 mph 60 % 0.0 in
16:27 13.8 °F 6.6 °F 1020.2 in SSW 1.6 mph 8.0 mph 62 % 0.0 in
16:32 13.7 °F 6.3 °F 1020.2 in SSE 4.8 mph 8.0 mph 61 % 0.0 in
16:37 13.6 °F 6.5 °F 1020.2 in South 3.2 mph 8.0 mph 62 % 0.0 in
16:42 13.4 °F 6.5 °F 1020.2 in Calm   6.4 mph 63 % 0.0 in
16:47 13.2 °F 6.5 °F 1020.2 in SSE 3.2 mph 6.4 mph 64 % 0.0 in
16:52 12.9 °F 6.3 °F 1020.2 in SSE 3.2 mph 8.0 mph 64 % 0.0 in
16:57 12.8 °F 6.4 °F 1020.2 in Calm   8.0 mph 65 % 0.0 in
17:02 12.6 °F 6.4 °F 1020.2 in SSE 4.8 mph 8.0 mph 66 % 0.0 in
17:07 12.4 °F 6.2 °F 1019.9 in SSE 1.6 mph 6.4 mph 66 % 0.0 in
17:12 12.2 °F 6.3 °F 1019.9 in SSE 1.6 mph 6.4 mph 67 % 0.0 in
17:17 12.1 °F 6.4 °F 1019.9 in Calm   6.4 mph 68 % 0.0 in
17:22 11.9 °F 6.2 °F 1019.9 in Calm   3.2 mph 68 % 0.0 in
17:32 11.4 °F 5.9 °F 1020.2 in SW 3.2 mph 3.2 mph 69 % 0.0 in
17:42 11.2 °F 6.1 °F 1020.2 in SW 1.6 mph 4.8 mph 71 % 0.0 in
17:47 11.2 °F 6.1 °F 1020.2 in SSW 1.6 mph 4.8 mph 71 % 0.0 in
17:52 11.0 °F 5.9 °F 1020.2 in SSW 1.6 mph 4.8 mph 71 % 0.0 in
17:57 10.9 °F 6.1 °F 1020.2 in SSW 1.6 mph 4.8 mph 72 % 0.0 in
18:02 10.9 °F 6.1 °F 1020.2 in Calm   3.2 mph 72 % 0.0 in
18:12 10.9 °F 6.3 °F 1020.2 in Calm   3.2 mph 73 % 0.0 in
18:17 10.9 °F 6.3 °F 1020.2 in SW 1.6 mph 1.6 mph 73 % 0.0 in
18:27 10.9 °F 6.3 °F 1020.2 in Calm   3.2 mph 73 % 0.0 in
18:32 11.0 °F 6.3 °F 1020.2 in Calm   3.2 mph 73 % 0.0 in
18:42 10.6 °F 6.0 °F 1019.9 in Calm   1.6 mph 73 % 0.0 in
18:47 10.3 °F 6.3 °F 1019.9 in Calm   1.6 mph 76 % 0.0 in
18:52 10.3 °F 6.1 °F 1019.9 in Calm   1.6 mph 75 % 0.0 in
18:57 10.3 °F 6.1 °F 1019.9 in Calm   1.6 mph 75 % 0.0 in
19:02 10.3 °F 6.3 °F 1019.9 in Calm   1.6 mph 76 % 0.0 in
19:12 10.1 °F 6.1 °F 1019.9 in Calm   1.6 mph 76 % 0.0 in
19:17 9.9 °F 6.1 °F 1019.9 in Calm     77 % 0.0 in
19:22 9.9 °F 6.1 °F 1019.9 in Calm     77 % 0.0 in
19:27 9.9 °F 6.1 °F 1019.9 in Calm     77 % 0.0 in
19:32 9.8 °F 6.0 °F 1019.9 in Calm     77 % 0.0 in
19:42 9.4 °F 5.8 °F 1019.9 in Calm     78 % 0.0 in
19:47 9.2 °F 5.9 °F 1019.9 in Calm     80 % 0.0 in
19:52 9.3 °F 6.2 °F 1019.9 in Calm     81 % 0.0 in
19:57 9.5 °F 6.2 °F 1019.9 in Calm     80 % 0.0 in
20:02 9.5 °F 6.2 °F 1019.9 in Calm     80 % 0.0 in
20:12 9.2 °F 6.1 °F 1019.9 in Calm   3.2 mph 81 % 0.0 in
20:17 9.0 °F 6.1 °F 1019.9 in Calm   3.2 mph 82 % 0.0 in
20:22 9.2 °F 6.3 °F 1019.9 in Calm   3.2 mph 82 % 0.0 in
20:32 9.1 °F 6.2 °F 1019.9 in Calm   1.6 mph 82 % 0.0 in
20:37 8.6 °F 5.5 °F 1019.9 in Calm   1.6 mph 81 % 0.0 in
20:47 8.6 °F 6.2 °F 1019.9 in SW 1.6 mph 3.2 mph 85 % 0.0 in
20:52 8.9 °F 6.0 °F 1019.9 in SSW 1.6 mph 3.2 mph 82 % 0.0 in
20:57 8.9 °F 6.0 °F 1019.9 in SSW 1.6 mph 6.4 mph 82 % 0.0 in
21:02 8.8 °F 5.9 °F 1019.9 in SSW 1.6 mph 6.4 mph 82 % 0.0 in
21:12 8.9 °F 6.2 °F 1019.9 in Calm   4.8 mph 83 % 0.0 in
21:17 8.9 °F 6.2 °F 1019.9 in Calm   3.2 mph 83 % 0.0 in
21:22 8.8 °F 5.9 °F 1019.9 in Calm   1.6 mph 82 % 0.0 in
21:27 8.7 °F 6.0 °F 1019.9 in Calm   1.6 mph 83 % 0.0 in
21:37 8.4 °F 5.7 °F 1019.9 in Calm     83 % 0.0 in
21:42 8.4 °F 5.9 °F 1019.9 in Calm   3.2 mph 84 % 0.0 in
21:47 8.3 °F 5.8 °F 1019.9 in Calm   3.2 mph 84 % 0.0 in
21:52 8.2 °F 5.8 °F 1019.9 in Calm   3.2 mph 85 % 0.0 in
21:57 8.1 °F 5.7 °F 1019.9 in Calm     85 % 0.0 in
22:02 7.9 °F 5.7 °F 1019.9 in Calm     86 % 0.0 in
22:07 7.8 °F 5.6 °F 1019.9 in Calm     86 % 0.0 in
22:17 7.7 °F 5.7 °F 1019.9 in Calm     87 % 0.0 in
22:22 7.7 °F 5.7 °F 1019.9 in Calm     87 % 0.0 in
22:27 7.7 °F 5.7 °F 1019.9 in Calm   1.6 mph 87 % 0.0 in
22:32 7.8 °F 5.8 °F 1019.9 in Calm   1.6 mph 87 % 0.0 in
22:42 7.7 °F 5.7 °F 1019.5 in Calm   1.6 mph 87 % 0.0 in
22:47 7.7 °F 5.7 °F 1019.5 in Calm   1.6 mph 87 % 0.0 in
22:52 7.7 °F 5.7 °F 1019.5 in Calm   1.6 mph 87 % 0.0 in
22:57 7.7 °F 5.7 °F 1019.5 in Calm   1.6 mph 87 % 0.0 in
23:02 7.7 °F 5.7 °F 1019.5 in Calm   1.6 mph 87 % 0.0 in
23:07 7.6 °F 5.6 °F 1019.5 in Calm     87 % 0.0 in
23:12 7.5 °F 5.5 °F 1019.5 in Calm     87 % 0.0 in
23:22 7.4 °F 5.5 °F 1019.5 in Calm     88 % 0.0 in
23:27 7.4 °F 5.5 °F 1019.5 in Calm     88 % 0.0 in
23:37 7.2 °F 5.3 °F 1019.9 in Calm     88 % 0.0 in
23:42 7.2 °F 5.5 °F 1019.9 in Calm     89 % 0.0 in
23:47 7.1 °F 5.6 °F 1019.9 in Calm     90 % 0.0 in
23:52 7.2 °F 5.5 °F 1019.9 in Calm   1.6 mph 89 % 0.0 in
23:57 7.2 °F 5.7 °F 1019.9 in Calm   1.6 mph 90 % 0.0 in
Meteo18
Compliments of Weather Underground - 4 mb

Script developed by  Jim McMurry - jmcmurry@mwt.net Adapted for the template by  Wim van der Kuil - Leuven-Template.eu

You find our weather info also at:

European Weather Network

Weather Underground

Equipment we use:

Weather-station
Davis Vue

Weather-program
Meteobridge

Weather-server
Raspberry PI 2 B+

Provider
1 and 1

Davis Vue

Meteobridge

Raspberry PI 2 B+

1 and 1